sensor_id;sensor_type;location;lat;lon;timestamp;P1;durP1;ratioP1;P2;durP2;ratioP2
43554;SDS011;35085;40.398;-3.702;2024-03-02T00:08:36;9.40;;;2.00;;
43554;SDS011;35085;40.398;-3.702;2024-03-02T00:18:44;7.22;;;2.00;;
43554;SDS011;35085;40.398;-3.702;2024-03-02T00:28:54;3.50;;;1.40;;
43554;SDS011;35085;40.398;-3.702;2024-03-02T00:39:00;8.70;;;1.85;;
43554;SDS011;35085;40.398;-3.702;2024-03-02T00:59:20;7.28;;;1.75;;
43554;SDS011;35085;40.398;-3.702;2024-03-02T01:09:29;5.15;;;1.73;;
43554;SDS011;35085;40.398;-3.702;2024-03-02T01:19:37;4.95;;;1.88;;
43554;SDS011;35085;40.398;-3.702;2024-03-02T01:29:46;7.10;;;2.00;;
43554;SDS011;35085;40.398;-3.702;2024-03-02T01:39:56;7.70;;;2.17;;
43554;SDS011;35085;40.398;-3.702;2024-03-02T01:50:04;8.18;;;1.77;;
43554;SDS011;35085;40.398;-3.702;2024-03-02T02:00:12;6.30;;;1.90;;
43554;SDS011;35085;40.398;-3.702;2024-03-02T02:10:14;6.80;;;1.60;;
43554;SDS011;35085;40.398;-3.702;2024-03-02T02:20:22;10.65;;;2.50;;
43554;SDS011;35085;40.398;-3.702;2024-03-02T02:30:31;5.83;;;2.13;;
43554;SDS011;35085;40.398;-3.702;2024-03-02T02:40:39;6.10;;;2.17;;
43554;SDS011;35085;40.398;-3.702;2024-03-02T02:50:41;8.93;;;1.88;;
43554;SDS011;35085;40.398;-3.702;2024-03-02T03:00:49;5.55;;;1.98;;
43554;SDS011;35085;40.398;-3.702;2024-03-02T03:10:50;4.40;;;1.83;;
43554;SDS011;35085;40.398;-3.702;2024-03-02T03:20:58;6.25;;;2.13;;
43554;SDS011;35085;40.398;-3.702;2024-03-02T03:31:06;6.43;;;2.33;;
43554;SDS011;35085;40.398;-3.702;2024-03-02T03:41:16;6.13;;;2.17;;
43554;SDS011;35085;40.398;-3.702;2024-03-02T03:51:24;7.72;;;1.65;;
43554;SDS011;35085;40.398;-3.702;2024-03-02T04:01:32;5.63;;;1.98;;
43554;SDS011;35085;40.398;-3.702;2024-03-02T04:11:40;7.65;;;2.13;;
43554;SDS011;35085;40.398;-3.702;2024-03-02T04:21:48;11.10;;;1.90;;
43554;SDS011;35085;40.398;-3.702;2024-03-02T04:31:56;6.25;;;2.60;;
43554;SDS011;35085;40.398;-3.702;2024-03-02T04:42:04;7.30;;;1.88;;
43554;SDS011;35085;40.398;-3.702;2024-03-02T04:52:06;8.15;;;1.90;;
43554;SDS011;35085;40.398;-3.702;2024-03-02T05:02:14;7.55;;;1.98;;
43554;SDS011;35085;40.398;-3.702;2024-03-02T05:12:22;8.98;;;2.00;;
43554;SDS011;35085;40.398;-3.702;2024-03-02T05:22:55;5.72;;;1.45;;
43554;SDS011;35085;40.398;-3.702;2024-03-02T05:33:03;9.20;;;2.25;;
43554;SDS011;35085;40.398;-3.702;2024-03-02T05:43:11;7.05;;;1.70;;
43554;SDS011;35085;40.398;-3.702;2024-03-02T05:53:19;8.20;;;1.83;;
43554;SDS011;35085;40.398;-3.702;2024-03-02T06:03:27;8.90;;;1.95;;
43554;SDS011;35085;40.398;-3.702;2024-03-02T06:13:35;9.52;;;1.67;;
43554;SDS011;35085;40.398;-3.702;2024-03-02T06:23:43;8.30;;;1.83;;
43554;SDS011;35085;40.398;-3.702;2024-03-02T06:33:51;9.60;;;1.60;;
43554;SDS011;35085;40.398;-3.702;2024-03-02T06:44:01;14.10;;;2.30;;
43554;SDS011;35085;40.398;-3.702;2024-03-02T06:54:02;12.32;;;2.33;;
43554;SDS011;35085;40.398;-3.702;2024-03-02T07:04:10;9.00;;;1.92;;
43554;SDS011;35085;40.398;-3.702;2024-03-02T07:14:18;10.30;;;2.13;;
43554;SDS011;35085;40.398;-3.702;2024-03-02T07:24:26;15.15;;;3.25;;
43554;SDS011;35085;40.398;-3.702;2024-03-02T07:34:34;9.70;;;2.38;;
43554;SDS011;35085;40.398;-3.702;2024-03-02T07:44:44;12.57;;;1.75;;
43554;SDS011;35085;40.398;-3.702;2024-03-02T07:54:52;12.02;;;2.33;;
43554;SDS011;35085;40.398;-3.702;2024-03-02T08:04:58;11.75;;;2.00;;
43554;SDS011;35085;40.398;-3.702;2024-03-02T08:15:08;12.57;;;2.57;;
43554;SDS011;35085;40.398;-3.702;2024-03-02T08:25:16;13.65;;;2.42;;
43554;SDS011;35085;40.398;-3.702;2024-03-02T08:35:24;13.05;;;2.90;;
43554;SDS011;35085;40.398;-3.702;2024-03-02T08:45:32;6.68;;;1.73;;
43554;SDS011;35085;40.398;-3.702;2024-03-02T08:55:40;11.02;;;2.17;;
43554;SDS011;35085;40.398;-3.702;2024-03-02T09:05:48;11.95;;;2.63;;
43554;SDS011;35085;40.398;-3.702;2024-03-02T09:15:56;8.70;;;2.40;;
43554;SDS011;35085;40.398;-3.702;2024-03-02T09:26:04;9.07;;;2.47;;
43554;SDS011;35085;40.398;-3.702;2024-03-02T09:36:17;9.80;;;1.70;;
43554;SDS011;35085;40.398;-3.702;2024-03-02T09:46:20;7.28;;;1.67;;
43554;SDS011;35085;40.398;-3.702;2024-03-02T09:56:26;15.00;;;2.33;;
43554;SDS011;35085;40.398;-3.702;2024-03-02T10:06:28;10.07;;;2.70;;
43554;SDS011;35085;40.398;-3.702;2024-03-02T10:16:37;11.73;;;1.80;;
43554;SDS011;35085;40.398;-3.702;2024-03-02T10:26:38;10.52;;;1.77;;
43554;SDS011;35085;40.398;-3.702;2024-03-02T10:36:46;8.13;;;1.20;;
43554;SDS011;35085;40.398;-3.702;2024-03-02T10:46:56;8.05;;;1.58;;
43554;SDS011;35085;40.398;-3.702;2024-03-02T10:57:02;4.90;;;1.00;;
43554;SDS011;35085;40.398;-3.702;2024-03-02T11:07:11;8.13;;;2.00;;
43554;SDS011;35085;40.398;-3.702;2024-03-02T11:17:17;10.18;;;2.63;;
43554;SDS011;35085;40.398;-3.702;2024-03-02T11:37:59;8.13;;;2.75;;
43554;SDS011;35085;40.398;-3.702;2024-03-02T11:48:04;9.80;;;2.97;;
43554;SDS011;35085;40.398;-3.702;2024-03-02T11:58:10;7.75;;;2.42;;
43554;SDS011;35085;40.398;-3.702;2024-03-02T12:08:19;7.80;;;2.10;;
43554;SDS011;35085;40.398;-3.702;2024-03-02T12:18:25;7.65;;;2.00;;
43554;SDS011;35085;40.398;-3.702;2024-03-02T12:28:27;4.68;;;1.48;;
43554;SDS011;35085;40.398;-3.702;2024-03-02T12:38:35;7.95;;;1.60;;
43554;SDS011;35085;40.398;-3.702;2024-03-02T12:48:38;5.28;;;1.48;;
43554;SDS011;35085;40.398;-3.702;2024-03-02T12:58:44;3.08;;;1.42;;
43554;SDS011;35085;40.398;-3.702;2024-03-02T13:08:46;4.78;;;1.33;;
43554;SDS011;35085;40.398;-3.702;2024-03-02T13:18:55;3.55;;;0.98;;
43554;SDS011;35085;40.398;-3.702;2024-03-02T13:29:03;6.57;;;2.30;;
43554;SDS011;35085;40.398;-3.702;2024-03-02T13:39:11;7.53;;;1.35;;
43554;SDS011;35085;40.398;-3.702;2024-03-02T13:49:21;7.88;;;2.10;;
43554;SDS011;35085;40.398;-3.702;2024-03-02T13:59:29;6.90;;;1.50;;
43554;SDS011;35085;40.398;-3.702;2024-03-02T14:09:31;5.85;;;1.52;;
43554;SDS011;35085;40.398;-3.702;2024-03-02T14:19:39;4.97;;;1.30;;
43554;SDS011;35085;40.398;-3.702;2024-03-02T14:29:42;6.68;;;1.40;;
43554;SDS011;35085;40.398;-3.702;2024-03-02T14:39:47;6.63;;;1.38;;
43554;SDS011;35085;40.398;-3.702;2024-03-02T14:49:50;6.22;;;1.83;;
43554;SDS011;35085;40.398;-3.702;2024-03-02T14:59:55;4.13;;;1.58;;
43554;SDS011;35085;40.398;-3.702;2024-03-02T15:10:03;4.63;;;1.10;;
43554;SDS011;35085;40.398;-3.702;2024-03-02T15:20:11;8.95;;;1.67;;
43554;SDS011;35085;40.398;-3.702;2024-03-02T15:30:19;5.32;;;1.50;;
43554;SDS011;35085;40.398;-3.702;2024-03-02T15:40:27;6.88;;;1.27;;
43554;SDS011;35085;40.398;-3.702;2024-03-02T15:50:35;3.90;;;1.27;;
43554;SDS011;35085;40.398;-3.702;2024-03-02T16:00:41;6.70;;;1.20;;
43554;SDS011;35085;40.398;-3.702;2024-03-02T16:10:43;3.83;;;0.90;;
43554;SDS011;35085;40.398;-3.702;2024-03-02T16:20:51;5.60;;;1.63;;
43554;SDS011;35085;40.398;-3.702;2024-03-02T16:30:59;2.58;;;0.50;;
43554;SDS011;35085;40.398;-3.702;2024-03-02T16:41:07;4.03;;;0.98;;
43554;SDS011;35085;40.398;-3.702;2024-03-02T16:51:17;1.20;;;0.30;;
43554;SDS011;35085;40.398;-3.702;2024-03-02T17:01:25;1.58;;;0.40;;
43554;SDS011;35085;40.398;-3.702;2024-03-02T17:11:31;1.17;;;0.55;;
43554;SDS011;35085;40.398;-3.702;2024-03-02T17:21:42;3.17;;;0.63;;
43554;SDS011;35085;40.398;-3.702;2024-03-02T17:31:50;2.13;;;0.73;;
43554;SDS011;35085;40.398;-3.702;2024-03-02T17:41:58;2.25;;;1.00;;
43554;SDS011;35085;40.398;-3.702;2024-03-02T17:52:05;1.38;;;0.60;;
43554;SDS011;35085;40.398;-3.702;2024-03-02T18:02:13;2.60;;;0.80;;
43554;SDS011;35085;40.398;-3.702;2024-03-02T18:12:15;4.72;;;2.25;;
43554;SDS011;35085;40.398;-3.702;2024-03-02T18:22:23;2.25;;;0.90;;
43554;SDS011;35085;40.398;-3.702;2024-03-02T18:32:31;2.15;;;1.08;;
43554;SDS011;35085;40.398;-3.702;2024-03-02T18:42:39;2.92;;;0.80;;
43554;SDS011;35085;40.398;-3.702;2024-03-02T18:52:49;2.70;;;1.25;;
43554;SDS011;35085;40.398;-3.702;2024-03-02T19:02:57;6.72;;;2.05;;
43554;SDS011;35085;40.398;-3.702;2024-03-02T19:13:05;5.80;;;1.90;;
43554;SDS011;35085;40.398;-3.702;2024-03-02T19:23:13;4.05;;;1.60;;
43554;SDS011;35085;40.398;-3.702;2024-03-02T19:33:21;2.33;;;0.88;;
43554;SDS011;35085;40.398;-3.702;2024-03-02T19:43:29;3.40;;;1.33;;
43554;SDS011;35085;40.398;-3.702;2024-03-02T19:53:39;4.40;;;2.00;;
43554;SDS011;35085;40.398;-3.702;2024-03-02T20:03:47;5.70;;;2.13;;
43554;SDS011;35085;40.398;-3.702;2024-03-02T20:13:53;7.10;;;3.15;;
43554;SDS011;35085;40.398;-3.702;2024-03-02T20:23:55;2.72;;;1.40;;
43554;SDS011;35085;40.398;-3.702;2024-03-02T20:34:02;3.22;;;1.38;;
43554;SDS011;35085;40.398;-3.702;2024-03-02T20:44:10;5.95;;;1.83;;
43554;SDS011;35085;40.398;-3.702;2024-03-02T20:54:18;3.67;;;1.40;;
43554;SDS011;35085;40.398;-3.702;2024-03-02T21:04:19;5.40;;;2.25;;
43554;SDS011;35085;40.398;-3.702;2024-03-02T21:14:27;5.20;;;2.00;;
43554;SDS011;35085;40.398;-3.702;2024-03-02T21:24:35;4.20;;;1.50;;
43554;SDS011;35085;40.398;-3.702;2024-03-02T21:34:43;2.95;;;1.17;;
43554;SDS011;35085;40.398;-3.702;2024-03-02T21:44:51;3.38;;;1.20;;
43554;SDS011;35085;40.398;-3.702;2024-03-02T22:05:09;5.63;;;1.55;;
43554;SDS011;35085;40.398;-3.702;2024-03-02T22:15:17;4.35;;;1.60;;
43554;SDS011;35085;40.398;-3.702;2024-03-02T22:25:25;3.03;;;1.60;;
43554;SDS011;35085;40.398;-3.702;2024-03-02T22:35:33;3.42;;;1.48;;
43554;SDS011;35085;40.398;-3.702;2024-03-02T22:45:41;1.20;;;0.50;;
43554;SDS011;35085;40.398;-3.702;2024-03-02T23:05:58;2.33;;;0.70;;
43554;SDS011;35085;40.398;-3.702;2024-03-02T23:16:06;1.95;;;0.60;;
43554;SDS011;35085;40.398;-3.702;2024-03-02T23:26:14;4.78;;;1.25;;
43554;SDS011;35085;40.398;-3.702;2024-03-02T23:36:23;3.13;;;1.00;;
43554;SDS011;35085;40.398;-3.702;2024-03-02T23:46:30;3.80;;;0.60;;
43554;SDS011;35085;40.398;-3.702;2024-03-02T23:56:38;2.70;;;0.70;;
